Erd, Hungary
Current Conditions -  °F | °C
As of 5:30 PM on Sunday 21 Dec 2014 (Local Time) from LHBP Reporting Station
Clear Clear  
Wind Chill: 35°   Ceiling: Unl
Heat Index: 43°   Visibility: 6mi
Dew Point: 28°   Wind: 16mph
Humidity: 57%   Direction: 290°WNW
Pressure: 30.3"   Gusts: NA
Location:  47.38°N, 18.91°E
Report Text: LHBP 211530Z 29014KT CAVOK 06/M02 Q1026 NOSIG
Loading
Personal Weather Stations






























Interactive Weather Map New forecast layout! Learn more

10-Day Weather Forecast

Advertisements
Track Severe Weather on mobile